createdAt,value
2023-01-13T00:01:26.550Z,100868.62
2023-01-13T00:03:53.552Z,100863.13
2023-01-13T00:06:22.266Z,100863.19
2023-01-13T00:08:50.163Z,100868.31
2023-01-13T00:11:17.561Z,100865.29
2023-01-13T00:13:45.578Z,100866.86
2023-01-13T00:16:15.707Z,100863.99
2023-01-13T00:18:43.523Z,100856.51
2023-01-13T00:21:21.179Z,100854.14
2023-01-13T00:23:48.142Z,100851.27
2023-01-13T00:26:27.672Z,100856.29
2023-01-13T00:28:59.327Z,100861.79
2023-01-13T00:31:26.818Z,100861.39
2023-01-13T00:33:57.119Z,100854.73
2023-01-13T00:36:24.134Z,100861.98
2023-01-13T00:38:51.028Z,100854.98
2023-01-13T00:41:20.018Z,100855.48
2023-01-13T00:43:47.190Z,100850.03
2023-01-13T00:46:16.092Z,100853.52
2023-01-13T00:48:44.877Z,100853.15
2023-01-13T00:51:17.099Z,100850.56
2023-01-13T00:53:45.618Z,100851.14
2023-01-13T00:56:22.113Z,100852.66
2023-01-13T00:58:58.904Z,100852.98
2023-01-13T01:01:26.111Z,100853.63
2023-01-13T01:03:53.741Z,100848.50
2023-01-13T01:06:22.504Z,100849.61
2023-01-13T01:08:49.679Z,100842.78
2023-01-13T01:11:18.940Z,100842.08
2023-01-13T01:13:46.269Z,100844.87
2023-01-13T01:16:16.702Z,100850.32
2023-01-13T01:18:45.767Z,100845.88
2023-01-13T01:21:13.165Z,100850.55
2023-01-13T01:23:40.324Z,100850.32
2023-01-13T01:26:20.831Z,100849.34
2023-01-13T01:28:47.895Z,100850.53
2023-01-13T01:31:16.853Z,100853.45
2023-01-13T01:33:44.039Z,100844.73
2023-01-13T01:36:12.102Z,100846.08
2023-01-13T01:38:39.092Z,100848.35
2023-01-13T01:41:06.686Z,100846.74
2023-01-13T01:44:08.194Z,100841.70
2023-01-13T01:57:04.638Z,100841.07
2023-01-13T01:59:32.829Z,100843.77
2023-01-13T02:02:00.522Z,100839.94
2023-01-13T02:04:36.241Z,100836.15
2023-01-13T02:07:03.575Z,100834.91
2023-01-13T02:09:30.834Z,100838.39
2023-01-13T02:12:17.533Z,100839.95
2023-01-13T02:14:44.704Z,100839.67
2023-01-13T02:17:41.338Z,100840.16
2023-01-13T02:20:23.023Z,100834.39
2023-01-13T02:23:32.003Z,100830.55
2023-01-13T02:26:27.781Z,100829.98
2023-01-13T02:36:54.616Z,100832.67
2023-01-13T02:39:35.972Z,100832.61
2023-01-13T02:42:32.125Z,100833.14
2023-01-13T02:45:05.245Z,100828.88
2023-01-13T02:47:33.230Z,100825.60
2023-01-13T08:23:53.604Z,100874.80
2023-01-13T08:26:21.053Z,100872.23
2023-01-13T08:28:48.130Z,100871.05
2023-01-13T08:31:16.605Z,100866.56
2023-01-13T08:33:44.155Z,100857.52
2023-01-13T08:36:12.441Z,100858.13
2023-01-13T08:46:04.793Z,100855.56
2023-01-13T08:58:50.153Z,100848.03
2023-01-13T09:01:22.208Z,100845.58
2023-01-13T09:04:18.658Z,100842.82
2023-01-13T09:06:46.732Z,100841.68
2023-01-13T09:09:31.261Z,100843.42
2023-01-13T09:12:17.875Z,100840.67
2023-01-13T09:14:45.844Z,100832.77
2023-01-13T09:17:13.410Z,100830.23
2023-01-13T09:19:41.271Z,100834.63
2023-01-13T09:22:10.663Z,100836.19
2023-01-13T09:24:37.629Z,100833.08
2023-01-13T09:27:05.063Z,100828.13
2023-01-13T09:29:33.210Z,100827.66
2023-01-13T09:32:01.042Z,100824.55
2023-01-13T09:34:46.894Z,100822.70
2023-01-13T09:37:14.093Z,100823.47
2023-01-13T09:39:41.705Z,100818.65
2023-01-13T09:42:51.761Z,100819.10
2023-01-13T09:45:30.520Z,100816.80
2023-01-13T09:48:02.876Z,100815.17
2023-01-13T09:50:51.810Z,100814.23
2023-01-13T09:53:26.212Z,100812.21
2023-01-13T09:55:54.229Z,100807.67
2023-01-13T09:58:21.488Z,100809.42
2023-01-13T10:01:30.417Z,100806.25
2023-01-13T10:03:58.146Z,100799.48
2023-01-13T10:06:36.220Z,100796.75
2023-01-13T10:09:04.030Z,100794.00
2023-01-13T14:20:22.488Z,100802.57
2023-01-13T14:22:51.020Z,100803.45
2023-01-13T14:25:39.509Z,100809.52
2023-01-13T14:28:26.773Z,100809.29
2023-01-13T14:30:54.119Z,100807.47
2023-01-13T14:33:42.772Z,100811.85
2023-01-13T14:36:34.716Z,100812.47
2023-01-13T14:39:04.461Z,100803.75
2023-01-13T14:41:47.039Z,100805.77
2023-01-13T14:44:26.606Z,100810.40
2023-01-13T14:46:57.756Z,100811.92
2023-01-13T14:49:39.572Z,100814.58
2023-01-13T14:52:17.194Z,100811.11
2023-01-13T14:54:46.125Z,100819.27
2023-01-13T14:57:31.471Z,100815.86
2023-01-13T15:00:13.643Z,100821.27
2023-01-13T15:02:43.581Z,100822.02
2023-01-13T15:05:19.380Z,100818.25
2023-01-13T15:07:56.039Z,100822.13
2023-01-13T15:10:25.141Z,100815.59
2023-01-13T15:12:54.370Z,100818.61
2023-01-13T15:15:23.029Z,100818.61
2023-01-13T15:17:50.587Z,100815.33
2023-01-13T15:20:19.294Z,100816.43
2023-01-13T15:22:46.924Z,100817.45
2023-01-13T15:25:15.061Z,100812.47
2023-01-13T15:27:43.300Z,100815.91
2023-01-13T15:30:17.804Z,100812.46
2023-01-13T15:32:45.297Z,100819.48
2023-01-13T15:35:16.188Z,100815.20
2023-01-13T15:37:43.660Z,100812.73
2023-01-13T15:40:19.216Z,100815.70
2023-01-13T15:43:05.208Z,100812.29
2023-01-13T15:45:51.092Z,100813.88
2023-01-13T15:48:19.860Z,100809.23
2023-01-13T15:50:46.733Z,100812.26
2023-01-13T15:53:14.488Z,100812.97
2023-01-13T15:55:42.517Z,100817.35
2023-01-13T15:58:12.972Z,100815.02
2023-01-13T16:00:43.001Z,100809.86
2023-01-13T16:03:13.455Z,100807.64
2023-01-13T16:05:41.217Z,100808.34
2023-01-13T16:08:17.401Z,100806.73
2023-01-13T16:10:45.070Z,100804.55
2023-01-13T16:13:13.135Z,100805.54
2023-01-13T16:15:42.965Z,100804.33
2023-01-13T16:18:16.894Z,100803.10
2023-01-13T16:20:44.302Z,100802.99
2023-01-13T16:23:12.830Z,100807.83
2023-01-13T16:25:43.092Z,100809.09
2023-01-13T16:28:18.269Z,100807.40
2023-01-13T16:30:45.243Z,100801.39
2023-01-13T16:33:12.212Z,100804.25
2023-01-13T16:36:08.732Z,100802.61
2023-01-13T16:38:26.242Z,100796.52
2023-01-13T16:40:54.911Z,100793.91
2023-01-13T16:43:22.370Z,100797.77
2023-01-13T16:45:49.322Z,100793.88
2023-01-13T16:48:20.295Z,100796.41
2023-01-13T16:50:47.525Z,100791.94
2023-01-13T16:53:14.491Z,100795.42
2023-01-13T16:55:41.890Z,100795.49
2023-01-13T16:58:16.869Z,100797.55
2023-01-13T17:00:46.901Z,100795.44
2023-01-13T17:03:14.771Z,100799.33
2023-01-13T17:05:43.340Z,100801.75
2023-01-13T17:08:14.239Z,100797.39
2023-01-13T17:10:41.937Z,100797.52
2023-01-13T17:13:16.066Z,100791.63
2023-01-13T17:15:45.562Z,100794.03
2023-01-13T17:18:13.538Z,100784.88
2023-01-13T17:20:41.040Z,100784.95
2023-01-13T17:23:07.943Z,100781.16
2023-01-13T17:25:35.044Z,100785.14
2023-01-13T17:28:02.062Z,100781.86
2023-01-13T17:30:29.984Z,100780.20
2023-01-13T17:32:56.910Z,100780.80
2023-01-13T17:35:25.216Z,100776.58
2023-01-13T17:37:54.744Z,100780.04
2023-01-13T17:40:21.901Z,100789.33
2023-01-13T17:42:48.757Z,100788.01
2023-01-13T17:45:18.675Z,100791.16
2023-01-13T17:47:47.441Z,100788.55
2023-01-13T17:50:15.294Z,100786.64
2023-01-13T17:52:42.153Z,100785.77
2023-01-13T17:55:09.217Z,100789.61
2023-01-13T17:57:36.216Z,100788.50
2023-01-13T18:00:04.477Z,100786.09
2023-01-13T18:02:40.320Z,100783.04
2023-01-13T18:05:08.028Z,100787.33
2023-01-13T18:07:34.984Z,100784.17
2023-01-13T18:10:02.943Z,100783.65
2023-01-13T18:12:30.373Z,100783.66
2023-01-13T18:14:57.375Z,100786.48
2023-01-13T18:17:24.267Z,100781.69
2023-01-13T18:20:10.309Z,100781.45
2023-01-13T18:22:55.960Z,100783.40
2023-01-13T18:25:41.114Z,100785.35
2023-01-13T18:28:07.938Z,100784.86
2023-01-13T18:30:35.355Z,100784.20
2023-01-13T18:33:03.684Z,100785.08
2023-01-13T18:35:30.861Z,100789.74
2023-01-13T18:37:57.955Z,100788.43
2023-01-13T18:40:25.192Z,100794.02
2023-01-13T18:42:52.230Z,100793.09
2023-01-13T18:45:26.826Z,100788.45
2023-01-13T18:47:55.697Z,100792.25
2023-01-13T18:50:23.265Z,100789.55
2023-01-13T18:52:50.492Z,100786.34
2023-01-13T18:55:17.612Z,100784.75
2023-01-13T18:57:44.823Z,100785.77
2023-01-13T19:00:13.662Z,100787.56
2023-01-13T19:02:40.973Z,100788.10
2023-01-13T19:05:08.377Z,100792.30
2023-01-13T19:07:36.244Z,100793.29
2023-01-13T19:10:04.567Z,100791.22
2023-01-13T19:12:33.711Z,100791.42
2023-01-13T19:15:01.149Z,100788.57
2023-01-13T19:17:31.692Z,100789.92
2023-01-13T19:19:59.759Z,100793.23
2023-01-13T19:22:29.955Z,100797.24
2023-01-13T19:24:57.651Z,100798.43
2023-01-13T19:27:24.600Z,100793.19
2023-01-13T19:29:52.498Z,100795.26
2023-01-13T19:32:20.578Z,100792.30
2023-01-13T19:34:49.382Z,100793.86
2023-01-13T19:37:16.544Z,100794.58
2023-01-13T19:39:44.388Z,100794.34
2023-01-13T19:42:30.432Z,100790.55
2023-01-13T19:45:16.140Z,100785.08
2023-01-13T19:47:45.397Z,100786.27
2023-01-13T19:50:12.466Z,100785.55
2023-01-13T19:52:39.619Z,100784.29
2023-01-13T19:55:06.995Z,100784.31
2023-01-13T19:57:35.470Z,100784.34
2023-01-13T20:00:03.523Z,100780.44
2023-01-13T20:02:44.921Z,100772.75
2023-01-13T20:05:18.012Z,100776.31
2023-01-13T20:07:45.269Z,100778.17
2023-01-13T20:10:13.558Z,100773.22
2023-01-13T20:12:41.746Z,100771.58
2023-01-13T20:15:10.352Z,100770.98
2023-01-13T20:17:37.521Z,100774.08
2023-01-13T20:20:05.695Z,100774.48
2023-01-13T20:22:37.316Z,100779.52
2023-01-13T20:25:04.623Z,100778.63
2023-01-13T20:27:31.879Z,100781.90
2023-01-13T20:29:59.173Z,100781.44
2023-01-13T20:32:26.108Z,100775.55
2023-01-13T20:34:53.005Z,100780.03
2023-01-13T20:37:20.197Z,100781.52
2023-01-13T20:39:48.078Z,100775.04
2023-01-13T20:42:30.191Z,100776.38
2023-01-13T20:44:58.350Z,100773.27
2023-01-13T20:47:27.670Z,100773.50
2023-01-13T20:49:54.584Z,100773.18
2023-01-13T20:52:21.961Z,100776.08
2023-01-13T20:54:48.951Z,100773.52
2023-01-13T20:57:16.311Z,100771.06
2023-01-13T20:59:43.234Z,100770.26
2023-01-13T21:02:13.283Z,100767.64
2023-01-13T21:04:40.372Z,100768.67
2023-01-13T21:07:07.617Z,100768.89
2023-01-13T21:09:34.817Z,100766.55
2023-01-13T21:12:20.802Z,100762.95
2023-01-13T21:15:06.562Z,100764.23
2023-01-13T21:17:53.126Z,100760.24
2023-01-13T21:20:20.193Z,100755.04
2023-01-13T21:22:49.748Z,100753.68
2023-01-13T21:25:18.495Z,100749.81
2023-01-13T21:27:45.626Z,100757.77
2023-01-13T21:30:15.867Z,100761.52
2023-01-13T21:32:44.125Z,100762.21
2023-01-13T21:35:11.824Z,100764.29
2023-01-13T21:37:42.670Z,100765.26
2023-01-13T21:40:12.129Z,100759.21
2023-01-13T21:42:58.813Z,100758.55
2023-01-13T21:45:46.311Z,100762.36
2023-01-13T21:48:13.201Z,100759.92
2023-01-13T21:50:40.487Z,100759.54
2023-01-13T21:53:10.280Z,100759.86
2023-01-13T21:55:37.685Z,100760.26
2023-01-13T21:58:11.033Z,100759.41
2023-01-13T22:00:38.335Z,100763.79
2023-01-13T22:03:06.208Z,100762.92
2023-01-13T22:05:33.349Z,100764.33
2023-01-13T22:08:00.218Z,100762.29
2023-01-13T22:10:30.031Z,100760.44
2023-01-13T22:12:58.558Z,100762.94
2023-01-13T22:15:27.523Z,100760.48
2023-01-13T22:17:54.714Z,100757.77
2023-01-13T22:20:21.937Z,100760.67
2023-01-13T22:22:49.875Z,100764.77
2023-01-13T22:25:16.974Z,100762.15
2023-01-13T22:27:44.848Z,100765.60
2023-01-13T22:30:18.065Z,100764.84
2023-01-13T22:32:45.608Z,100762.28
2023-01-13T22:35:14.003Z,100765.00
2023-01-13T22:37:41.360Z,100763.25
2023-01-13T22:40:10.810Z,100759.90
2023-01-13T22:42:39.568Z,100756.77
2023-01-13T22:45:08.420Z,100753.29
2023-01-13T22:47:35.472Z,100755.59
2023-01-13T22:50:02.621Z,100752.80
2023-01-13T22:52:30.323Z,100750.23
2023-01-13T22:54:57.748Z,100747.63
2023-01-13T22:57:24.709Z,100750.99
2023-01-13T22:59:51.627Z,100746.33
2023-01-13T23:02:18.640Z,100747.95
2023-01-13T23:04:45.793Z,100747.43
2023-01-13T23:07:13.486Z,100747.36
2023-01-13T23:09:40.531Z,100750.54
2023-01-13T23:12:07.572Z,100751.02
2023-01-13T23:14:36.199Z,100748.41
2023-01-13T23:17:03.313Z,100753.24
2023-01-13T23:19:30.417Z,100750.42
2023-01-13T23:21:57.270Z,100750.11
2023-01-13T23:24:26.040Z,100747.50
2023-01-13T23:26:52.901Z,100748.94
2023-01-13T23:29:21.662Z,100751.92
2023-01-13T23:31:48.603Z,100753.32
2023-01-13T23:34:15.607Z,100753.23
2023-01-13T23:36:43.837Z,100747.92
2023-01-13T23:39:10.670Z,100746.69
2023-01-13T23:41:37.491Z,100746.13
2023-01-13T23:44:04.403Z,100746.95
2023-01-13T23:46:32.853Z,100748.08
2023-01-13T23:49:01.629Z,100745.73
2023-01-13T23:51:30.270Z,100742.84
2023-01-13T23:53:57.342Z,100739.33
2023-01-13T23:56:26.256Z,100739.80
2023-01-13T23:58:53.116Z,100740.26
